Latest Weather Observations for Casterton

IDV60801

Issued at 10:31 pm EST Wednesday 25 May 2016 (issued every 30 minutes, with the page automatically refreshed every 10 minutes)

About weather observations | Map of weather stations | Latest weather observations for VIC | Other Formats
Station Details ID: 090182 Name: CASTERTON Lat: -37.58 Lon: 141.33 Height: 130.6 m
Data from the previous 72 hours. | See also: Recent months at Casterton
Date/Time
EST
Temp
°C
App
Temp
°C
Dew
Point
Rel
Hum
%
Delta-T
°C
Wind Press
QNH
hPa
Press
MSL
hPa
Rain
since 9 am
mm
Dir
 
Spd
km/h
Gust
km/h
Spd
kts
Gust
kts
25/10:30pm 11.0 8.4 10.8 99 0.1 N 15 19 8 10 1005.5 - 5.0
25/10:00pm 11.0 8.8 10.8 99 0.1 N 13 19 7 10 1005.7 - 5.0
25/09:30pm 10.8 8.2 10.6 99 0.1 N 15 20 8 11 1005.7 - 4.8
25/09:00pm 10.7 8.0 10.5 99 0.1 N 15 20 8 11 1005.9 1005.9 4.4
25/08:30pm 10.7 8.0 10.5 99 0.1 N 15 22 8 12 1005.9 - 4.2
25/08:00pm 10.7 8.0 10.5 99 0.1 N 15 24 8 13 1005.9 - 4.2
25/07:30pm 10.6 7.9 10.4 99 0.1 N 15 24 8 13 1005.9 - 4.0
25/07:00pm 10.6 7.9 10.4 99 0.1 N 15 24 8 13 1006.1 - 4.0
25/06:30pm 10.6 7.9 10.4 99 0.1 N 15 26 8 14 1006.2 - 3.8
25/06:00pm 10.6 7.9 10.4 99 0.1 N 15 20 8 11 1006.3 1006.4 3.8
25/05:30pm 10.5 8.2 10.3 99 0.1 N 13 20 7 11 1006.3 - 3.6
25/05:00pm 10.5 7.8 10.3 99 0.1 N 15 20 8 11 1006.4 - 2.2
25/04:30pm 10.6 7.9 10.4 99 0.1 N 15 24 8 13 1006.5 - 0.8
25/04:00pm 11.0 7.5 10.2 95 0.4 N 19 26 10 14 1006.6 - 0.4
25/03:30pm 11.1 7.0 10.2 94 0.5 N 22 33 12 18 1006.7 - 0.4
25/03:00pm 11.3 7.7 10.5 95 0.4 N 20 30 11 16 1006.4 1006.5 0.4
25/02:30pm 10.9 6.8 10.1 95 0.4 N 22 35 12 19 1006.9 - 0.4
25/02:00pm 11.2 6.6 9.8 91 0.7 N 24 37 13 20 1007.3 - 0.0
25/01:30pm 11.0 6.4 9.8 92 0.6 N 24 37 13 20 1007.7 - 0.0
25/01:00pm 10.9 6.7 9.7 92 0.6 N 22 30 12 16 1008.2 - 0.0
25/12:30pm 10.6 6.3 9.4 92 0.6 N 22 32 12 17 1008.8 - 0.0
25/12:00pm 10.4 6.6 9.0 91 0.7 N 19 32 10 17 1009.4 1009.5 0.0
25/11:30am 10.5 6.6 8.8 89 0.8 N 19 30 10 16 1009.7 - 0.0
25/11:00am 10.7 6.6 8.5 86 1.1 N 20 33 11 18 1010.2 - 0.0
25/10:30am 10.6 5.9 7.8 83 1.4 N 22 33 12 18 1010.4 - 0.0
25/10:00am 10.8 6.4 7.5 80 1.6 N 20 32 11 17 1010.6 - 0.0
25/09:30am 10.8 6.1 7.7 81 1.5 N 22 35 12 19 1010.8 - 0.0
25/09:00am 12.0 5.4 6.1 67 2.8 N 30 39 16 21 1011.0 1011.1 0.0
25/08:30am 11.7 6.9 5.6 66 2.8 N 20 30 11 16 1011.1 - 0.0
25/08:00am 11.7 6.9 5.6 66 2.8 N 20 30 11 16 1010.9 - 0.0
25/07:30am 11.4 6.9 5.9 69 2.6 N 19 26 10 14 1011.2 - 0.0
25/07:00am 11.5 7.4 6.0 69 2.6 N 17 22 9 12 1011.4 - 0.0
25/06:30am 11.6 7.4 5.9 68 2.7 N 17 24 9 13 1011.2 - 0.0
25/06:00am 12.2 7.7 6.0 66 2.9 N 19 26 10 14 1011.5 1011.6 0.0
25/05:30am 12.0 8.3 6.3 68 2.7 N 15 22 8 12 1011.8 - 0.0
25/05:00am 11.7 8.5 6.8 72 2.3 N 13 20 7 11 1012.0 - 0.0
25/04:30am 12.2 8.3 6.9 70 2.6 N 17 24 9 13 1012.5 - 0.0
25/04:00am 12.3 8.1 7.4 72 2.4 N 19 24 10 13 1012.8 - 0.0
25/03:30am 12.2 8.1 7.7 74 2.2 N 19 28 10 15 1012.8 - 0.0
25/03:00am 12.5 8.5 8.2 75 2.1 N 19 28 10 15 1013.2 1013.3 0.0
25/02:30am 12.6 8.8 8.9 78 1.9 N 19 26 10 14 1013.6 - 0.0
25/02:00am 12.2 9.6 9.2 82 1.5 NNE 13 17 7 9 1013.8 - 0.0
25/01:30am 11.8 9.3 9.7 87 1.1 NNE 13 20 7 11 1014.1 - 0.0
25/01:00am 11.9 9.5 10.1 89 0.9 NNE 13 17 7 9 1015.0 - 0.0
25/12:30am 11.8 9.6 10.7 93 0.6 NNE 13 17 7 9 1015.4 - 0.0
25/12:00am 10.7 8.8 10.5 99 0.1 NE 11 15 6 8 1015.8 1015.9 0.0
 
Date/Time
EST
Temp
°C
App
Temp
°C
Dew
Point
Rel
Hum
%
Delta-T
°C
Wind Press
QNH
hPa
Press
MSL
hPa
Rain
since 9 am
mm
Dir
 
Spd
km/h
Gust
km/h
Spd
kts
Gust
kts
24/11:30pm 10.6 8.7 10.4 99 0.1 NE 11 13 6 7 1016.1 - 0.0
24/11:00pm 10.5 8.5 10.3 99 0.1 NE 11 13 6 7 1016.2 - 0.0
24/10:30pm 9.9 8.2 9.8 99 0.1 NE 9 11 5 6 1016.6 - 0.0
24/10:00pm 10.4 9.2 10.2 99 0.1 NE 7 9 4 5 1017.1 - 0.0
24/09:30pm 10.6 9.4 10.4 99 0.1 NE 7 9 4 5 1017.1 - 0.0
24/09:00pm 10.8 9.7 10.6 99 0.1 NE 7 9 4 5 1017.3 1017.4 0.0
24/08:30pm 10.9 9.8 10.7 99 0.1 NE 7 7 4 4 1017.6 - 0.0
24/08:00pm 11.0 9.9 10.8 99 0.1 ENE 7 9 4 5 1017.8 - 0.0
24/07:30pm 11.5 10.5 11.0 97 0.3 NNE 7 11 4 6 1017.9 - 0.0
24/07:00pm 11.5 10.5 10.9 96 0.3 NE 7 11 4 6 1018.2 - 0.0
24/06:30pm 13.0 12.3 12.1 94 0.5 NNE 7 11 4 6 1018.2 - 0.0
24/06:00pm 12.4 11.4 11.1 92 0.7 N 7 11 4 6 1018.4 1018.5 0.0
24/05:30pm 13.3 12.4 11.5 89 1.0 N 7 9 4 5 1018.3 - 0.0
24/05:00pm 14.9 14.2 12.0 83 1.6 N 7 7 4 4 1018.4 - 0.0
24/04:30pm 16.4 15.4 12.4 77 2.2 NNW 9 13 5 7 1018.5 - 0.0
24/04:00pm 16.9 15.8 12.0 73 2.7 NNW 9 13 5 7 1018.3 - 0.0
24/03:30pm 17.1 14.9 12.0 72 2.8 NNW 15 20 8 11 1018.2 - 0.0
24/03:00pm 17.0 15.7 12.5 75 2.5 WNW 11 17 6 9 1018.4 1018.5 0.0
24/02:30pm 16.9 15.3 12.8 77 2.3 NW 13 19 7 10 1018.7 - 0.0
24/02:00pm 15.9 14.4 13.0 83 1.6 NNW 13 19 7 10 1018.9 - 0.0
24/01:30pm 15.8 14.0 12.0 78 2.1 NW 13 19 7 10 1019.1 - 0.0
24/01:00pm 15.3 12.8 12.2 82 1.7 NW 17 24 9 13 1019.6 - 0.0
24/12:30pm 15.2 13.1 12.3 83 1.6 NW 15 20 8 11 1020.0 - 0.0
24/12:00pm 16.1 14.2 13.0 82 1.7 NW 15 20 8 11 1020.5 1020.6 0.0
24/11:30am 15.5 14.2 12.6 83 1.6 N 11 15 6 8 1021.0 - 0.0
24/11:00am 14.8 13.7 11.9 83 1.6 NNW 9 15 5 8 1021.4 - 0.0
24/10:30am 14.5 13.8 12.0 85 1.4 NNW 7 13 4 7 1021.5 - 0.0
24/10:00am 13.5 12.4 11.9 90 0.9 NW 9 11 5 6 1021.7 - 0.0
24/09:30am 13.1 12.1 12.3 95 0.4 NW 9 11 5 6 1021.9 - 0.0
24/09:00am 11.9 11.3 11.7 99 0.1 NW 6 7 3 4 1021.9 1022.0 3.4
24/08:30am 11.1 11.4 10.9 99 0.1 CALM 0 0 0 0 1021.6 - 3.4
24/08:00am 10.2 9.1 10.0 99 0.1 NNE 6 7 3 4 1021.7 - 3.4
24/07:30am 10.6 10.4 10.4 99 0.1 NNW 2 7 1 4 1021.7 - 3.2
24/07:00am 10.5 10.3 10.3 99 0.1 NW 2 6 1 3 1021.4 - 3.2
24/06:30am 10.2 9.1 10.0 99 0.1 NW 6 7 3 4 1021.0 - 3.2
24/06:00am 10.6 9.1 10.4 99 0.1 WNW 9 11 5 6 1020.9 1021.0 3.2
24/05:30am 10.7 9.8 10.5 99 0.1 WNW 6 7 3 4 1020.5 - 3.2
24/05:00am 10.5 9.9 10.3 99 0.1 WNW 4 9 2 5 1020.3 - 3.2
24/04:30am 10.6 9.1 10.4 99 0.1 W 9 11 5 6 1020.3 - 3.2
24/04:00am 10.8 8.9 10.6 99 0.1 WNW 11 15 6 8 1020.3 - 3.2
24/03:30am 10.4 8.8 10.2 99 0.1 WNW 9 13 5 7 1020.4 - 3.2
24/03:00am 10.8 8.9 10.6 99 0.1 WNW 11 13 6 7 1020.5 1020.6 3.2
24/02:30am 10.7 9.2 10.5 99 0.1 WNW 9 13 5 7 1020.5 - 3.2
24/02:00am 10.3 8.7 10.1 99 0.1 WNW 9 13 5 7 1020.5 - 3.2
24/01:30am 10.0 8.3 9.9 99 0.1 NW 9 11 5 6 1020.6 - 3.2
24/01:00am 10.3 9.0 10.1 99 0.1 WNW 7 11 4 6 1020.6 - 3.2
24/12:30am 9.5 7.7 9.4 99 0.0 WNW 9 11 5 6 1020.8 - 3.2
24/12:00am 9.7 8.3 9.6 99 0.1 WNW 7 11 4 6 1020.8 1020.9 3.2
 
Date/Time
EST
Temp
°C
App
Temp
°C
Dew
Point
Rel
Hum
%
Delta-T
°C
Wind Press
QNH
hPa
Press
MSL
hPa
Rain
since 9 am
mm
Dir
 
Spd
km/h
Gust
km/h
Spd
kts
Gust
kts
23/11:30pm 9.8 8.1 9.7 99 0.1 WNW 9 11 5 6 1021.0 - 3.2
23/11:00pm 10.5 8.9 10.2 98 0.2 WNW 9 13 5 7 1021.2 - 3.2
23/10:30pm 10.4 8.4 10.1 98 0.2 WNW 11 15 6 8 1021.2 - 3.2
23/10:00pm 10.2 7.7 9.7 97 0.3 WNW 13 19 7 10 1021.1 - 3.2
23/09:30pm 10.1 8.0 9.9 99 0.1 WNW 11 17 6 9 1020.9 - 3.2
23/09:00pm 8.9 6.5 8.6 98 0.1 WNW 11 13 6 7 1020.8 1020.9 3.2
23/08:30pm 9.3 7.3 8.7 96 0.3 WNW 9 11 5 6 1020.6 - 3.2
23/08:00pm 9.7 7.4 8.9 95 0.4 WNW 11 15 6 8 1020.5 - 3.2
23/07:30pm 10.3 8.1 9.4 94 0.5 WNW 11 15 6 8 1020.3 - 3.2
23/07:00pm 10.7 8.2 9.6 93 0.6 W 13 19 7 10 1020.1 - 3.2
23/06:30pm 10.9 8.1 10.0 94 0.5 W 15 20 8 11 1019.9 - 3.2
23/06:00pm 11.3 9.0 10.5 95 0.4 W 13 17 7 9 1019.5 1019.7 3.2
23/05:30pm 12.2 9.4 11.3 94 0.5 W 17 26 9 14 1019.0 - 3.2
23/05:00pm 12.4 9.1 11.5 94 0.5 WSW 20 33 11 18 1018.7 - 3.2
23/04:30pm 12.8 9.2 11.9 94 0.5 W 22 39 12 21 1018.5 - 3.2
23/04:00pm 13.6 10.6 11.8 89 1.0 W 19 30 10 16 1018.3 - 3.2
23/03:30pm 13.7 10.1 11.9 89 1.0 W 22 33 12 18 1018.0 - 3.2
23/03:00pm 13.0 10.1 12.2 95 0.4 WNW 19 35 10 19 1018.0 1018.1 3.2
23/02:30pm 12.3 10.0 11.8 97 0.3 WSW 15 22 8 12 1018.2 - 3.2
23/02:00pm 12.6 11.6 12.4 99 0.1 W 9 15 5 8 1018.0 - 3.0
23/01:30pm 13.2 8.7 10.0 81 1.7 WNW 24 35 13 19 1018.0 - 0.8
23/01:11pm 14.7 9.6 10.5 76 2.2 NW 28 46 15 25 1017.9 - 0.6
23/01:00pm 14.7 10.8 10.9 78 2.0 WNW 22 32 12 17 1017.9 - 0.6
23/12:30pm 12.4 8.6 9.8 84 1.3 WNW 20 32 11 17 1018.5 - 0.6
23/12:00pm 13.7 8.9 8.7 72 2.5 WNW 24 35 13 19 1018.5 1018.6 0.2
23/11:30am 13.1 8.3 8.8 75 2.2 NW 24 35 13 19 1019.0 - 0.0
23/11:00am 13.4 9.4 9.1 75 2.2 WNW 20 33 11 18 1019.2 - 0.0
23/10:30am 12.5 9.0 8.6 77 2.0 WNW 17 24 9 13 1019.0 - 0.0
23/10:00am 11.6 8.4 8.3 80 1.6 WNW 15 20 8 11 1018.7 - 0.0
23/09:30am 10.5 6.9 8.4 87 1.0 NW 17 22 9 12 1018.6 - 0.0
23/09:00am 9.2 5.0 7.5 89 0.8 WNW 19 24 10 13 1018.4 1018.5 13.4
23/08:30am 8.2 4.4 7.6 96 0.3 NW 17 20 9 11 1018.5 - 13.4
23/08:00am 7.3 4.2 7.2 99 0.0 NW 13 17 7 9 1017.9 - 13.4
23/07:30am 7.5 4.0 7.2 98 0.1 NW 15 19 8 10 1017.2 - 13.4
23/07:00am 7.7 5.0 7.4 98 0.1 WNW 11 17 6 9 1016.5 - 13.4
23/06:30am 8.3 5.0 8.0 98 0.1 NW 15 19 8 10 1016.3 - 13.4
23/06:00am 8.3 5.4 8.2 99 0.0 NNW 13 20 7 11 1015.6 1015.7 13.4
23/05:30am 8.3 5.3 7.5 95 0.4 WNW 13 20 7 11 1015.3 - 13.4
23/05:00am 8.7 5.5 8.3 97 0.2 W 15 32 8 17 1015.4 - 13.2
23/04:30am 8.7 5.3 7.6 93 0.5 WNW 15 20 8 11 1014.1 - 11.4
23/04:00am 9.0 4.3 7.6 91 0.7 W 22 32 12 17 1013.3 - 11.4
23/03:43am 9.5 2.8 8.3 92 0.6 W 33 54 18 29 1013.3 - 11.4
23/03:30am 10.1 3.2 8.9 92 0.6 WNW 35 52 19 28 1012.8 - 11.4
23/03:24am 10.5 4.6 8.9 90 0.8 WNW 30 52 16 28 1012.6 - 11.4
23/03:00am 10.3 5.2 9.2 93 0.6 NW 26 41 14 22 1011.9 1012.0 11.4
23/02:30am 9.9 6.1 9.1 95 0.4 NNW 19 26 10 14 1011.5 - 11.4
23/02:00am 9.8 6.0 9.0 95 0.4 NW 19 28 10 15 1011.5 - 11.0
23/01:30am 10.4 5.6 9.0 91 0.7 WNW 24 33 13 18 1011.4 - 11.0
23/01:00am 10.8 4.6 9.4 91 0.7 NW 32 46 17 25 1011.2 - 10.8
23/12:43am 11.8 5.8 10.7 93 0.6 NW 33 54 18 29 1011.2 - 10.2
23/12:30am 12.1 7.6 11.5 96 0.3 NW 26 41 14 22 1010.4 - 9.8
23/12:00am 12.2 8.5 11.4 95 0.4 NW 22 33 12 18 1010.3 1010.4 9.8
 
Date/Time
EST
Temp
°C
App
Temp
°C
Dew
Point
Rel
Hum
%
Delta-T
°C
Wind Press
QNH
hPa
Press
MSL
hPa
Rain
since 9 am
mm
Dir
 
Spd
km/h
Gust
km/h
Spd
kts
Gust
kts
22/11:30pm 12.2 9.1 11.6 96 0.3 NNW 19 32 10 17 1010.1 - 9.8
22/11:00pm 12.3 8.7 11.7 96 0.3 NNW 22 35 12 19 1010.0 - 9.8

Other Formats:

Comma delimited format used in spreadsheet applications
http://www.bom.gov.au/fwo/IDV60801/IDV60801.95825.axf

JavaScript Object Notation format (JSON) in row-major order
http://www.bom.gov.au/fwo/IDV60801/IDV60801.95825.json